Time;durP1;ratioP1;P1;durP2;ratioP2;P2;SDS_P1;SDS_P2;PMS_P1;PMS_P2;Temp;Humidity;BMP_temperature;BMP_pressure;BME280_temperature;BME280_humidity;BME280_pressure;Samples;Min_cycle;Max_cycle;Signal;HPM_P1;HPM_P2
2022/09/06 00:00:06;;;;;;;10.35;5.88;;;20.70;97.30;;;;;;5043474;28;20045;-49
2022/09/06 00:02:32;;;;;;;6.80;5.78;;;20.70;97.20;;;;;;5041188;28;20044;-50
2022/09/06 00:04:58;;;;;;;6.63;5.93;;;20.70;97.20;;;;;;5041081;28;20060;-52
2022/09/06 00:07:24;;;;;;;7.45;5.95;;;20.70;97.10;;;;;;5040306;28;20075;-50
2022/09/06 00:09:49;;;;;;;10.35;5.53;;;20.70;97.10;;;;;;5041851;28;20067;-48
2022/09/06 00:12:15;;;;;;;6.85;5.70;;;20.70;97.00;;;;;;5044753;28;20118;-49
2022/09/06 00:14:41;;;;;;;8.38;5.85;;;20.70;97.00;;;;;;5045636;28;20459;-49
2022/09/06 00:17:06;;;;;;;6.85;6.07;;;20.70;97.00;;;;;;5044454;28;20052;-49
2022/09/06 00:19:32;;;;;;;9.88;6.78;;;20.70;97.00;;;;;;5043474;28;20041;-50
2022/09/06 00:21:58;;;;;;;9.48;7.05;;;20.70;97.00;;;;;;5041764;28;20479;-48
2022/09/06 00:24:25;;;;;;;7.50;6.43;;;20.70;97.00;;;;;;5044470;28;20127;-48
2022/09/06 00:26:50;;;;;;;9.98;6.78;;;20.70;97.00;;;;;;5043645;28;20040;-48
2022/09/06 00:29:16;;;;;;;7.65;6.95;;;20.60;97.00;;;;;;5042675;28;20047;-48
2022/09/06 00:31:42;;;;;;;7.78;6.90;;;20.60;97.00;;;;;;5044429;28;20504;-48
2022/09/06 00:34:08;;;;;;;9.20;6.60;;;20.60;97.00;;;;;;5043533;28;20048;-48
2022/09/06 00:36:33;;;;;;;9.40;6.32;;;20.60;97.10;;;;;;5044789;28;20077;-47
2022/09/06 00:38:59;;;;;;;9.02;6.13;;;20.50;97.00;;;;;;5043658;28;20535;-48
2022/09/06 00:41:25;;;;;;;7.50;6.68;;;20.50;97.10;;;;;;5044371;28;20072;-49
2022/09/06 00:43:50;;;;;;;10.88;7.07;;;20.50;97.10;;;;;;5043864;28;20080;-48
2022/09/06 00:46:31;;;;;;;9.85;6.82;;;20.50;97.10;;;;;;5043656;28;20075;-47
2022/09/06 00:49:24;;;;;;;11.00;6.00;;;20.50;97.20;;;;;;5042680;28;20048;-47
2022/09/06 00:52:04;;;;;;;8.00;6.43;;;20.50;97.20;;;;;;5042647;28;20519;-48
2022/09/06 00:54:31;;;;;;;11.35;6.97;;;20.50;97.20;;;;;;5043872;28;20044;-49
2022/09/06 00:56:57;;;;;;;11.43;6.85;;;20.50;97.10;;;;;;5026331;28;20049;-49
2022/09/06 00:59:32;;;;;;;8.30;7.20;;;20.50;97.10;;;;;;5042518;28;20096;-47
2022/09/06 01:01:58;;;;;;;9.63;7.20;;;20.50;97.10;;;;;;5042948;28;20088;-47
2022/09/06 01:04:25;;;;;;;8.02;6.30;;;20.50;97.10;;;;;;5043095;28;20555;-47
2022/09/06 01:07:00;;;;;;;10.88;6.88;;;20.50;97.10;;;;;;5039807;28;20057;-47
2022/09/06 01:09:54;;;;;;;8.80;6.75;;;20.50;97.10;;;;;;5042947;28;20052;-48
2022/09/06 01:12:54;;;;;;;8.15;7.25;;;20.50;97.10;;;;;;5034335;28;20045;-51
2022/09/06 01:15:36;;;;;;;8.85;7.95;;;20.50;97.10;;;;;;5042717;28;20154;-46
2022/09/06 01:18:23;;;;;;;8.15;7.45;;;20.40;97.10;;;;;;5043859;28;20115;-51
2022/09/06 01:21:14;;;;;;;8.35;6.95;;;20.30;97.20;;;;;;5043818;28;20127;-47
2022/09/06 01:24:14;;;;;;;10.48;7.13;;;20.30;97.40;;;;;;5036607;28;20060;-48
2022/09/06 01:27:02;;;;;;;12.48;7.30;;;20.20;97.40;;;;;;5039529;28;20059;-47
2022/09/06 01:29:53;;;;;;;7.70;6.88;;;20.20;97.60;;;;;;5042148;28;20049;-49
2022/09/06 01:32:57;;;;;;;7.72;6.82;;;20.20;97.60;;;;;;5038297;28;20048;-47
2022/09/06 01:35:37;;;;;;;8.07;7.28;;;20.10;97.60;;;;;;5042968;28;20521;-47
2022/09/06 01:38:04;;;;;;;9.57;7.28;;;20.20;97.60;;;;;;5042872;28;20051;-47
2022/09/06 01:40:34;;;;;;;10.15;7.90;;;20.10;97.70;;;;;;5024721;28;20048;-49
2022/09/06 01:43:00;;;;;;;7.85;7.05;;;20.10;97.70;;;;;;5042112;28;20045;-46
2022/09/06 01:45:49;;;;;;;8.40;7.50;;;20.10;97.70;;;;;;5041641;28;20380;-47
2022/09/06 01:48:34;;;;;;;7.90;7.10;;;20.10;97.70;;;;;;5042628;28;20132;-47
2022/09/06 01:51:22;;;;;;;11.73;7.05;;;20.10;97.70;;;;;;5042875;28;20579;-47
2022/09/06 01:53:54;;;;;;;8.88;7.43;;;20.10;97.70;;;;;;5023528;28;20057;-48
2022/09/06 01:56:47;;;;;;;7.97;7.18;;;20.10;97.80;;;;;;5042665;28;20495;-46
2022/09/06 01:59:39;;;;;;;8.10;7.00;;;20.10;97.70;;;;;;5042477;28;20080;-47
2022/09/06 02:02:35;;;;;;;8.30;7.40;;;20.10;97.70;;;;;;5041101;28;20165;-47
2022/09/06 02:05:29;;;;;;;8.95;8.10;;;20.00;97.70;;;;;;5040893;28;20451;-47
2022/09/06 02:08:03;;;;;;;8.55;7.68;;;20.00;97.70;;;;;;5040968;28;20458;-47
2022/09/06 02:10:36;;;;;;;10.27;6.95;;;20.00;97.70;;;;;;5041962;28;20045;-46
2022/09/06 02:13:06;;;;;;;7.90;6.93;;;20.00;97.80;;;;;;5042319;28;20045;-47
2022/09/06 02:15:35;;;;;;;9.55;7.72;;;19.90;98.00;;;;;;5042536;28;20059;-47
2022/09/06 02:18:27;;;;;;;9.18;8.13;;;19.90;98.20;;;;;;5040441;28;20475;-48
2022/09/06 02:20:56;;;;;;;9.00;8.10;;;19.90;98.50;;;;;;5041700;28;20041;-47
2022/09/06 02:23:27;;;;;;;8.68;7.85;;;19.90;98.30;;;;;;5040417;28;20065;-46
2022/09/06 02:25:57;;;;;;;10.13;7.78;;;19.90;98.30;;;;;;5041007;28;20053;-49
2022/09/06 02:28:23;;;;;;;8.77;7.88;;;19.80;98.30;;;;;;5031018;28;20049;-48
2022/09/06 02:30:56;;;;;;;8.65;7.60;;;19.80;98.60;;;;;;5023565;28;20056;-47
2022/09/06 02:33:26;;;;;;;8.48;7.78;;;19.80;98.60;;;;;;5040911;28;20091;-48
2022/09/06 02:35:53;;;;;;;10.98;8.10;;;19.80;98.60;;;;;;5023016;28;20067;-48
2022/09/06 02:38:25;;;;;;;18.55;8.45;;;19.80;98.50;;;;;;5041686;28;20527;-49
2022/09/06 02:40:53;;;;;;;8.30;7.50;;;19.70;98.70;;;;;;5040902;28;20057;-48
2022/09/06 02:43:20;;;;;;;8.65;7.80;;;19.70;98.60;;;;;;5041514;28;20048;-48
2022/09/06 02:45:46;;;;;;;9.07;7.63;;;19.70;98.50;;;;;;5042566;28;20049;-49
2022/09/06 02:48:11;;;;;;;8.45;7.63;;;19.70;98.60;;;;;;5043535;28;20387;-47
2022/09/06 02:50:37;;;;;;;9.10;7.40;;;19.70;98.50;;;;;;5044088;28;20135;-48
2022/09/06 02:53:09;;;;;;;11.07;7.97;;;19.70;98.40;;;;;;5041772;28;20689;-51
2022/09/06 02:55:35;;;;;;;8.18;7.40;;;19.70;98.40;;;;;;5038141;28;20033;-49
2022/09/06 02:58:02;;;;;;;9.13;8.25;;;19.60;98.40;;;;;;5040871;28;20190;-48
2022/09/06 03:00:29;;;;;;;8.65;7.85;;;19.60;98.30;;;;;;5040848;28;20056;-48
2022/09/06 03:02:55;;;;;;;10.38;8.48;;;19.60;98.30;;;;;;5041072;28;20056;-49
2022/09/06 03:05:25;;;;;;;10.30;8.18;;;19.50;98.30;;;;;;5039637;28;20055;-51
2022/09/06 03:07:53;;;;;;;9.15;8.25;;;19.50;98.30;;;;;;5040424;28;20051;-49
2022/09/06 03:10:19;;;;;;;8.52;7.55;;;19.50;98.30;;;;;;5041036;28;20393;-46
2022/09/06 03:12:46;;;;;;;9.45;8.23;;;19.50;98.30;;;;;;5023882;28;20063;-48
2022/09/06 03:15:13;;;;;;;10.60;8.35;;;19.50;98.30;;;;;;5041776;28;20053;-48
2022/09/06 03:17:40;;;;;;;10.07;9.05;;;19.50;98.40;;;;;;5041014;28;20048;-48
2022/09/06 03:20:08;;;;;;;10.13;9.15;;;19.50;98.50;;;;;;5041291;28;20107;-48
2022/09/06 03:22:38;;;;;;;10.45;9.48;;;19.40;98.50;;;;;;5040654;28;20567;-47
2022/09/06 03:25:05;;;;;;;9.55;8.60;;;19.40;98.70;;;;;;5021904;28;20048;-48
2022/09/06 03:27:31;;;;;;;9.70;8.20;;;19.40;98.70;;;;;;5040753;28;20260;-48
2022/09/06 03:29:57;;;;;;;10.15;8.75;;;19.30;99.00;;;;;;5040630;28;20478;-48
2022/09/06 03:32:23;;;;;;;9.55;8.57;;;19.30;98.90;;;;;;5023198;28;20493;-48
2022/09/06 03:34:48;;;;;;;11.23;8.85;;;19.30;99.00;;;;;;5041097;28;20227;-50
2022/09/06 03:37:14;;;;;;;9.77;8.80;;;19.30;99.50;;;;;;5022603;28;20053;-47
2022/09/06 03:39:40;;;;;;;8.73;7.82;;;19.30;99.40;;;;;;5040883;28;20483;-47
2022/09/06 03:42:06;;;;;;;10.00;9.18;;;19.30;99.50;;;;;;5039314;28;20471;-47
2022/09/06 03:44:32;;;;;;;11.40;8.90;;;19.30;99.80;;;;;;5044874;28;20056;-47
2022/09/06 03:46:57;;;;;;;9.82;8.82;;;19.30;99.90;;;;;;5043438;28;20188;-48
2022/09/06 03:49:23;;;;;;;11.73;10.73;;;19.20;99.90;;;;;;5043500;28;20483;-47
2022/09/06 03:51:49;;;;;;;11.40;10.18;;;19.20;99.90;;;;;;5044487;28;20057;-50
2022/09/06 03:54:14;;;;;;;11.77;10.70;;;19.10;99.90;;;;;;5045066;28;20090;-47
2022/09/06 03:56:40;;;;;;;12.07;10.18;;;19.10;99.90;;;;;;5044465;28;20052;-48
2022/09/06 03:59:06;;;;;;;13.10;11.82;;;19.00;99.90;;;;;;5044361;28;20056;-47
2022/09/06 04:01:32;;;;;;;11.93;10.88;;;19.00;99.90;;;;;;5026956;28;20080;-50
2022/09/06 04:03:57;;;;;;;12.95;11.68;;;18.90;99.90;;;;;;5044791;28;20522;-47
2022/09/06 04:06:23;;;;;;;12.57;11.50;;;18.90;99.90;;;;;;5044667;28;20052;-47
2022/09/06 04:08:49;;;;;;;14.73;13.05;;;18.80;99.90;;;;;;5025743;28;20629;-47
2022/09/06 04:11:14;;;;;;;12.85;11.75;;;18.80;99.90;;;;;;5026755;28;20053;-49
2022/09/06 04:13:40;;;;;;;12.93;11.70;;;18.70;99.90;;;;;;5049154;28;20049;-49
2022/09/06 04:16:06;;;;;;;13.27;12.07;;;18.70;99.90;;;;;;5045328;28;20896;-49
2022/09/06 04:18:32;;;;;;;11.77;10.70;;;18.60;99.90;;;;;;5043434;28;20052;-46
2022/09/06 04:20:57;;;;;;;12.88;11.80;;;18.50;99.90;;;;;;5043490;28;20045;-48
2022/09/06 04:23:25;;;;;;;13.02;11.55;;;18.40;99.90;;;;;;5043739;28;20064;-46
2022/09/06 04:25:53;;;;;;;12.93;11.82;;;18.40;99.90;;;;;;5044716;28;20357;-47
2022/09/06 04:28:19;;;;;;;12.43;11.13;;;18.30;99.90;;;;;;5024005;28;20049;-47
2022/09/06 04:30:52;;;;;;;13.13;11.55;;;18.20;99.90;;;;;;5043518;28;20071;-49
2022/09/06 04:33:17;;;;;;;12.65;11.45;;;18.20;99.90;;;;;;5044406;28;20055;-46
2022/09/06 04:35:48;;;;;;;12.32;11.27;;;18.20;99.90;;;;;;5044688;28;20041;-48
2022/09/06 04:38:14;;;;;;;12.98;11.75;;;18.20;99.90;;;;;;5043229;28;20074;-47
2022/09/06 04:40:40;;;;;;;14.10;12.82;;;18.10;99.90;;;;;;5043162;28;20044;-47
2022/09/06 04:43:06;;;;;;;13.77;12.35;;;18.10;99.90;;;;;;5043709;28;20091;-48
2022/09/06 04:45:31;;;;;;;13.32;11.98;;;18.10;99.90;;;;;;5044104;28;20048;-48
2022/09/06 04:47:57;;;;;;;12.98;11.73;;;18.10;99.90;;;;;;5043097;28;20488;-47
2022/09/06 04:50:23;;;;;;;13.10;12.10;;;18.10;99.90;;;;;;5043717;28;20110;-46
2022/09/06 04:52:48;;;;;;;13.05;11.95;;;18.10;99.90;;;;;;5044274;28;20132;-48
2022/09/06 04:55:14;;;;;;;13.35;12.25;;;18.10;99.90;;;;;;5042381;28;20496;-48
2022/09/06 04:57:40;;;;;;;13.65;12.27;;;18.10;99.90;;;;;;5043052;28;20179;-48
2022/09/06 05:00:07;;;;;;;12.57;11.68;;;18.10;99.90;;;;;;5024591;28;20082;-46
2022/09/06 05:02:32;;;;;;;14.57;13.05;;;18.10;99.90;;;;;;5042671;28;20060;-46
2022/09/06 05:04:58;;;;;;;13.20;12.00;;;18.10;99.90;;;;;;5043117;28;20053;-47
2022/09/06 05:07:24;;;;;;;14.23;12.82;;;18.10;99.90;;;;;;5043900;28;20518;-47
2022/09/06 05:09:49;;;;;;;12.70;11.60;;;18.10;99.90;;;;;;5042885;28;20127;-48
2022/09/06 05:12:15;;;;;;;13.13;11.93;;;18.00;99.90;;;;;;5043099;28;20515;-47
2022/09/06 05:14:41;;;;;;;13.95;12.75;;;18.00;99.90;;;;;;5043731;28;20132;-48
2022/09/06 05:17:06;;;;;;;12.82;11.60;;;18.00;99.90;;;;;;5043111;28;20463;-46
2022/09/06 05:19:32;;;;;;;14.68;11.73;;;18.00;99.90;;;;;;5041412;28;20055;-50
2022/09/06 05:21:58;;;;;;;13.63;12.25;;;18.00;99.90;;;;;;5042328;28;20049;-47
2022/09/06 05:24:24;;;;;;;16.35;13.27;;;18.00;99.90;;;;;;5044245;28;20059;-46
2022/09/06 05:26:49;;;;;;;13.70;12.55;;;18.00;99.90;;;;;;5044144;28;20094;-46
2022/09/06 05:29:15;;;;;;;17.50;13.38;;;18.00;99.90;;;;;;5042689;28;20040;-47
2022/09/06 05:31:41;;;;;;;18.13;14.07;;;18.00;99.90;;;;;;5043027;28;20503;-46
2022/09/06 05:34:07;;;;;;;13.98;12.75;;;18.10;99.90;;;;;;5043707;28;20195;-47
2022/09/06 05:36:32;;;;;;;14.02;12.93;;;18.10;99.90;;;;;;5046829;28;20559;-46
2022/09/06 05:38:58;;;;;;;14.68;13.18;;;18.10;99.90;;;;;;5024862;28;20110;-51
2022/09/06 05:41:24;;;;;;;21.58;14.70;;;18.10;99.90;;;;;;5042460;28;20045;-49
2022/09/06 05:43:50;;;;;;;18.98;13.15;;;18.00;99.90;;;;;;5042688;28;20041;-47
2022/09/06 05:46:16;;;;;;;15.38;13.85;;;18.00;99.90;;;;;;5042822;28;20458;-46
2022/09/06 05:48:42;;;;;;;13.75;12.45;;;18.00;99.90;;;;;;5024977;28;20551;-47
2022/09/06 05:51:12;;;;;;;20.38;13.80;;;18.10;99.90;;;;;;5042690;28;20041;-46
2022/09/06 05:53:40;;;;;;;14.77;13.30;;;18.10;99.90;;;;;;5042764;28;20053;-48
2022/09/06 05:56:07;;;;;;;15.57;14.02;;;18.00;99.90;;;;;;5042401;28;20226;-47
2022/09/06 05:58:32;;;;;;;15.98;14.68;;;18.00;99.90;;;;;;5039272;28;20494;-46
2022/09/06 06:01:16;;;;;;;15.70;14.32;;;18.00;99.90;;;;;;5042005;28;20041;-47
2022/09/06 06:03:48;;;;;;;15.13;13.20;;;18.00;99.90;;;;;;5042729;28;20479;-48
2022/09/06 06:06:14;;;;;;;14.40;13.17;;;18.00;99.90;;;;;;5041459;28;20044;-46
2022/09/06 06:08:39;;;;;;;14.85;13.45;;;18.00;99.90;;;;;;5042151;28;20044;-50
2022/09/06 06:11:05;;;;;;;15.82;14.20;;;18.00;99.90;;;;;;5042578;28;20124;-47
2022/09/06 06:13:33;;;;;;;14.93;13.48;;;18.10;99.90;;;;;;5042301;28;20364;-49
2022/09/06 06:16:01;;;;;;;14.93;13.57;;;18.10;99.90;;;;;;5041077;28;20490;-47
2022/09/06 06:18:27;;;;;;;14.65;13.43;;;18.10;99.90;;;;;;5040073;28;20157;-47
2022/09/06 06:21:08;;;;;;;16.20;14.73;;;18.20;99.90;;;;;;5039274;28;20037;-47
2022/09/06 06:23:34;;;;;;;15.85;14.55;;;18.30;99.90;;;;;;5041298;28;20140;-48
2022/09/06 06:25:59;;;;;;;17.40;15.85;;;18.30;99.90;;;;;;5041253;28;20070;-46
2022/09/06 06:28:25;;;;;;;15.88;14.25;;;18.30;99.90;;;;;;5040621;28;20525;-48
2022/09/06 06:30:51;;;;;;;16.25;14.82;;;18.40;99.90;;;;;;5023192;28;20053;-47
2022/09/06 06:33:17;;;;;;;15.82;14.60;;;18.40;99.90;;;;;;5041050;28;20049;-46
2022/09/06 06:35:56;;;;;;;15.93;14.48;;;18.50;99.90;;;;;;5041080;28;20040;-47
2022/09/06 06:38:21;;;;;;;16.15;14.75;;;18.50;99.90;;;;;;5037804;28;20045;-46
2022/09/06 06:40:47;;;;;;;16.35;14.68;;;18.50;99.90;;;;;;5041204;28;20060;-46
2022/09/06 06:43:13;;;;;;;15.30;13.77;;;18.60;99.90;;;;;;5041234;28;20496;-46
2022/09/06 06:45:38;;;;;;;15.32;13.93;;;18.70;99.90;;;;;;5041476;28;20044;-47
2022/09/06 06:48:04;;;;;;;14.52;13.10;;;18.80;99.90;;;;;;5040026;28;20043;-46
2022/09/06 06:50:30;;;;;;;15.00;13.65;;;19.10;99.90;;;;;;5041616;28;20052;-47
2022/09/06 06:52:55;;;;;;;14.50;12.93;;;19.70;99.90;;;;;;5041835;28;20075;-46
2022/09/06 06:55:21;;;;;;;14.38;12.45;;;21.10;99.90;;;;;;5041979;28;20041;-55
2022/09/06 06:57:47;;;;;;;13.27;12.07;;;22.40;99.90;;;;;;5042684;28;21307;-47
2022/09/06 07:00:16;;;;;;;13.70;12.50;;;23.00;99.90;;;;;;5043022;28;20055;-51
2022/09/06 07:02:41;;;;;;;13.35;12.02;;;22.90;99.90;;;;;;5023627;28;20053;-52
2022/09/06 07:05:07;;;;;;;13.32;12.18;;;22.40;99.90;;;;;;5041195;28;20495;-48
2022/09/06 07:07:33;;;;;;;13.82;12.45;;;21.90;99.90;;;;;;5049085;28;20040;-48
2022/09/06 07:09:59;;;;;;;13.20;12.20;;;21.40;99.90;;;;;;5030093;28;20053;-48
2022/09/06 07:12:24;;;;;;;13.73;12.63;;;21.20;99.90;;;;;;5041606;28;20475;-47
2022/09/06 07:14:50;;;;;;;14.00;12.70;;;21.20;99.90;;;;;;5041281;28;20315;-48
2022/09/06 07:17:16;;;;;;;14.40;12.45;;;21.30;99.90;;;;;;5039697;28;20080;-47
2022/09/06 07:19:41;;;;;;;13.27;12.00;;;21.50;99.90;;;;;;5040424;28;20041;-47
2022/09/06 07:22:07;;;;;;;13.55;12.25;;;21.60;99.90;;;;;;5041479;28;20080;-47
2022/09/06 07:24:33;;;;;;;12.68;11.68;;;21.80;99.90;;;;;;5041109;28;20049;-48
2022/09/06 07:26:58;;;;;;;14.40;13.20;;;22.10;99.90;;;;;;5041113;28;20049;-46
2022/09/06 07:29:25;;;;;;;14.35;12.93;;;22.30;99.90;;;;;;5022509;28;20554;-48
2022/09/06 07:31:55;;;;;;;13.95;12.88;;;22.70;99.90;;;;;;5041520;28;20084;-47
2022/09/06 07:34:21;;;;;;;14.32;12.93;;;22.90;99.90;;;;;;5039040;28;20487;-48
2022/09/06 07:36:47;;;;;;;13.50;12.40;;;23.10;99.90;;;;;;5022315;28;20059;-48
2022/09/06 07:39:13;;;;;;;13.10;12.00;;;23.20;99.90;;;;;;5039742;28;20080;-48
2022/09/06 07:41:38;;;;;;;14.05;12.85;;;23.40;99.90;;;;;;5040352;28;20123;-47
2022/09/06 07:44:04;;;;;;;13.60;12.18;;;23.50;99.90;;;;;;5040479;28;20049;-48
2022/09/06 07:46:30;;;;;;;13.48;12.30;;;23.30;99.90;;;;;;5040285;28;20518;-49
2022/09/06 07:48:55;;;;;;;15.40;13.40;;;23.10;99.90;;;;;;5039645;28;20052;-49
2022/09/06 07:51:21;;;;;;;13.02;11.93;;;22.80;99.90;;;;;;5038566;28;20088;-49
2022/09/06 07:53:49;;;;;;;14.88;13.25;;;22.60;99.90;;;;;;5040859;28;20464;-48
2022/09/06 07:56:16;;;;;;;14.43;13.02;;;22.60;99.90;;;;;;5021903;28;20432;-48
2022/09/06 07:58:42;;;;;;;15.32;13.80;;;22.60;99.90;;;;;;5039774;28;20463;-49
2022/09/06 08:01:14;;;;;;;14.25;12.88;;;22.90;99.90;;;;;;5041046;28;20045;-47
2022/09/06 08:03:39;;;;;;;15.30;13.77;;;22.80;99.90;;;;;;5040161;28;20522;-48
2022/09/06 08:06:05;;;;;;;14.57;13.32;;;22.70;99.90;;;;;;5040587;28;20340;-49
2022/09/06 08:08:31;;;;;;;15.10;13.80;;;22.60;99.90;;;;;;5039340;28;20666;-48
2022/09/06 08:10:56;;;;;;;14.75;13.55;;;22.50;99.90;;;;;;5040274;28;20049;-48
2022/09/06 08:13:22;;;;;;;14.48;13.23;;;22.40;99.90;;;;;;5040357;28;20183;-48
2022/09/06 08:15:48;;;;;;;14.70;13.50;;;22.40;99.90;;;;;;5039417;28;20044;-48
2022/09/06 08:18:13;;;;;;;16.00;14.50;;;22.40;99.90;;;;;;5035250;28;20052;-49
2022/09/06 08:20:39;;;;;;;15.32;13.85;;;22.60;99.90;;;;;;5039125;28;20079;-47
2022/09/06 08:23:09;;;;;;;15.70;14.45;;;22.60;99.90;;;;;;5041097;28;20113;-49
2022/09/06 08:25:34;;;;;;;16.20;14.80;;;22.50;99.90;;;;;;5044246;28;20064;-51
2022/09/06 08:28:00;;;;;;;15.35;14.02;;;22.50;99.90;;;;;;5040274;28;20045;-51
2022/09/06 08:30:28;;;;;;;15.52;14.20;;;22.50;99.90;;;;;;5041936;28;20059;-51
2022/09/06 08:32:55;;;;;;;16.17;14.88;;;22.40;99.90;;;;;;5043149;28;20406;-48
2022/09/06 08:35:21;;;;;;;15.95;14.40;;;22.40;99.90;;;;;;5023594;28;20492;-49
2022/09/06 08:37:47;;;;;;;16.45;14.98;;;22.60;99.90;;;;;;5042178;28;20500;-48
2022/09/06 08:40:20;;;;;;;15.40;14.15;;;22.70;99.90;;;;;;5042645;28;20489;-49
2022/09/06 08:42:46;;;;;;;16.60;15.18;;;22.90;99.90;;;;;;5041476;28;20087;-47
2022/09/06 08:45:17;;;;;;;17.17;15.60;;;23.00;99.90;;;;;;5044099;28;20045;-49
2022/09/06 08:47:43;;;;;;;15.90;14.38;;;23.20;99.90;;;;;;5043320;28;20129;-49
2022/09/06 08:50:10;;;;;;;16.08;14.75;;;23.30;99.90;;;;;;5044018;28;20055;-49
2022/09/06 08:52:45;;;;;;;16.23;14.98;;;23.50;99.90;;;;;;5025469;28;20071;-48
2022/09/06 08:55:37;;;;;;;16.23;14.95;;;23.80;99.90;;;;;;5042828;28;20308;-48
2022/09/06 08:58:15;;;;;;;17.38;15.55;;;23.90;99.90;;;;;;5036382;28;20590;-48
2022/09/06 09:00:50;;;;;;;17.52;15.82;;;24.10;99.90;;;;;;5043785;28;20571;-52
2022/09/06 09:03:30;;;;;;;15.57;14.27;;;24.10;99.40;;;;;;5043383;28;20092;-48
2022/09/06 09:05:56;;;;;;;15.18;13.95;;;24.10;99.60;;;;;;5025830;28;20551;-48
2022/09/06 09:09:00;;;;;;;16.08;14.65;;;24.20;99.50;;;;;;5042506;28;20048;-48
2022/09/06 09:11:27;;;;;;;15.63;14.45;;;24.30;99.20;;;;;;5042900;28;20611;-50
2022/09/06 09:14:07;;;;;;;15.90;14.35;;;24.50;99.30;;;;;;5042794;28;20040;-49
2022/09/06 09:16:42;;;;;;;15.63;14.15;;;24.50;99.00;;;;;;5042882;28;20488;-48
2022/09/06 09:19:08;;;;;;;16.63;15.25;;;24.40;99.00;;;;;;5042718;28;20095;-49
2022/09/06 09:21:37;;;;;;;15.75;14.45;;;24.40;99.20;;;;;;5043377;28;20431;-48
2022/09/06 09:24:09;;;;;;;16.02;14.48;;;24.50;99.40;;;;;;5042858;28;20478;-50
2022/09/06 09:26:43;;;;;;;14.63;13.52;;;24.60;99.30;;;;;;5041554;28;20056;-50
2022/09/06 09:29:11;;;;;;;16.85;15.35;;;24.60;98.80;;;;;;5042393;28;20045;-49
2022/09/06 09:31:40;;;;;;;16.58;15.13;;;24.60;99.00;;;;;;5024326;28;20412;-52
2022/09/06 09:34:26;;;;;;;14.57;13.30;;;24.70;99.30;;;;;;5042214;28;20059;-48
2022/09/06 09:37:11;;;;;;;15.15;13.80;;;24.80;99.20;;;;;;5043257;28;20081;-48
2022/09/06 09:39:38;;;;;;;15.13;13.32;;;25.00;99.30;;;;;;5023829;28;20052;-50
2022/09/06 09:42:04;;;;;;;13.95;12.65;;;25.10;98.50;;;;;;5042863;28;20049;-52
2022/09/06 09:44:30;;;;;;;12.77;11.35;;;25.20;97.90;;;;;;5043641;28;20053;-51
2022/09/06 09:46:56;;;;;;;12.48;11.30;;;25.10;97.90;;;;;;5043516;28;20863;-49
2022/09/06 09:49:23;;;;;;;11.85;10.65;;;25.30;97.70;;;;;;5042734;28;20051;-50
2022/09/06 09:52:12;;;;;;;11.70;10.80;;;25.40;97.40;;;;;;5042937;28;20437;-49
2022/09/06 09:54:42;;;;;;;12.63;11.43;;;25.60;97.00;;;;;;5036101;28;20060;-55
2022/09/06 09:57:12;;;;;;;12.60;11.40;;;25.70;96.90;;;;;;5043954;28;20061;-52
2022/09/06 09:59:46;;;;;;;13.00;11.85;;;25.80;96.90;;;;;;5046141;28;20049;-49
2022/09/06 10:02:51;;;;;;;13.77;12.48;;;25.90;96.70;;;;;;5028146;28;20087;-51
2022/09/06 10:05:20;;;;;;;14.15;12.43;;;26.00;96.00;;;;;;4948069;28;20058;-51
2022/09/06 10:07:54;;;;;;;12.80;11.73;;;26.00;96.30;;;;;;4948633;28;20262;-54
2022/09/06 10:10:21;;;;;;;13.10;11.85;;;26.10;96.60;;;;;;4963904;28;20063;-49
2022/09/06 10:13:04;;;;;;;12.25;11.05;;;26.10;96.40;;;;;;4947668;28;20059;-49
2022/09/06 10:15:39;;;;;;;12.98;11.85;;;26.20;96.60;;;;;;4963711;28;20517;-53
2022/09/06 10:18:12;;;;;;;12.90;11.80;;;26.40;96.20;;;;;;4963662;28;20051;-49
2022/09/06 10:20:57;;;;;;;12.52;11.35;;;26.40;95.90;;;;;;4963437;28;20051;-48
2022/09/06 10:24:04;;;;;;;12.70;11.35;;;26.50;95.60;;;;;;4962358;28;20046;-50
2022/09/06 10:26:55;;;;;;;11.85;10.95;;;26.60;95.60;;;;;;4960153;28;20055;-51
2022/09/06 10:29:51;;;;;;;10.93;9.88;;;26.70;95.30;;;;;;4963524;28;20054;-50
2022/09/06 10:32:48;;;;;;;12.82;11.52;;;26.60;95.20;;;;;;4962443;28;20051;-53
2022/09/06 10:35:34;;;;;;;11.07;10.10;;;26.50;94.80;;;;;;4968889;28;20140;-52
2022/09/06 10:38:03;;;;;;;11.18;10.10;;;26.50;94.90;;;;;;5004581;28;20042;-53
2022/09/06 10:41:07;;;;;;;11.85;10.38;;;26.50;95.60;;;;;;5005595;28;20822;-50
2022/09/06 10:44:01;;;;;;;9.43;8.73;;;26.70;94.60;;;;;;4943979;29;20162;-51
2022/09/06 10:46:32;;;;;;;9.60;8.80;;;26.60;95.20;;;;;;4912363;29;20090;-50
2022/09/06 10:48:58;;;;;;;9.43;8.43;;;26.60;95.00;;;;;;4943819;29;20464;-53
2022/09/06 10:51:40;;;;;;;9.85;9.00;;;26.70;95.10;;;;;;4943618;29;20077;-50
2022/09/06 10:54:21;;;;;;;9.30;8.50;;;26.80;94.40;;;;;;4926619;29;20106;-52
2022/09/06 10:56:56;;;;;;;7.60;7.00;;;27.00;94.70;;;;;;4927931;29;20051;-53
2022/09/06 10:59:32;;;;;;;8.75;6.47;;;27.10;94.40;;;;;;4944032;29;20155;-52
2022/09/06 11:02:16;;;;;;;7.82;7.10;;;27.20;94.20;;;;;;4944451;29;20047;-53
2022/09/06 11:04:45;;;;;;;8.82;6.88;;;27.20;93.40;;;;;;4925798;29;20549;-53
2022/09/06 11:07:27;;;;;;;7.25;6.55;;;27.20;93.20;;;;;;4943419;29;20518;-53
2022/09/06 11:10:12;;;;;;;;;;;27.10;93.50;;;;;;4928830;28;20054;-52
2022/09/06 11:13:03;;;;;;;6.95;6.45;;;27.10;93.40;;;;;;4946968;28;20440;-52
2022/09/06 11:15:52;;;;;;;9.18;6.72;;;27.00;93.60;;;;;;4942714;29;20098;-52
2022/09/06 11:18:21;;;;;;;7.25;6.50;;;27.10;93.80;;;;;;4941636;29;20519;-50
2022/09/06 11:21:09;;;;;;;5.68;5.18;;;27.20;93.30;;;;;;4997321;28;20061;-51
2022/09/06 11:23:52;;;;;;;7.60;4.95;;;27.30;92.40;;;;;;5039521;28;20705;-52
2022/09/06 11:26:33;;;;;;;;;;;27.40;92.70;;;;;;5044244;28;20045;-52
2022/09/06 11:29:15;;;;;;;5.97;5.38;;;27.50;92.70;;;;;;5044215;28;19925;-51
2022/09/06 11:31:57;;;;;;;7.07;4.90;;;27.40;92.00;;;;;;5044244;28;20049;-52
2022/09/06 11:34:32;;;;;;;5.40;4.70;;;27.50;92.30;;;;;;5044460;28;20051;-51
2022/09/06 11:37:00;;;;;;;7.10;4.60;;;27.60;93.40;;;;;;5043786;28;20060;-54
2022/09/06 11:39:40;;;;;;;5.60;4.47;;;27.60;93.40;;;;;;5044759;28;20080;-53
2022/09/06 11:42:39;;;;;;;5.75;4.20;;;27.70;92.80;;;;;;5045003;28;20045;-51
2022/09/06 11:45:12;;;;;;;4.18;3.78;;;27.70;92.20;;;;;;5044554;28;20124;-55
2022/09/06 11:47:40;;;;;;;4.85;4.25;;;27.60;91.70;;;;;;5043956;28;20412;-51
2022/09/06 11:50:23;;;;;;;6.75;3.92;;;27.70;92.00;;;;;;5043350;28;20041;-53
2022/09/06 11:53:02;;;;;;;5.47;4.07;;;27.70;92.50;;;;;;5038969;28;20084;-55
2022/09/06 11:55:34;;;;;;;4.68;3.83;;;27.70;92.10;;;;;;5043867;28;20061;-51
2022/09/06 11:58:05;;;;;;;6.35;3.40;;;27.70;92.20;;;;;;5025779;28;20147;-51
2022/09/06 12:00:31;;;;;;;5.45;4.05;;;27.60;92.00;;;;;;5042131;28;20063;-51
2022/09/06 12:02:57;;;;;;;4.65;3.47;;;27.50;91.90;;;;;;5044487;28;20836;-54
2022/09/06 12:05:26;;;;;;;5.63;3.42;;;27.50;91.90;;;;;;5046479;28;20090;-53
2022/09/06 12:08:30;;;;;;;4.03;3.60;;;27.30;92.40;;;;;;5047782;28;20044;-54
2022/09/06 12:11:00;;;;;;;3.80;3.20;;;27.30;92.10;;;;;;5047545;28;20558;-50
2022/09/06 12:13:44;;;;;;;4.28;3.35;;;27.30;92.10;;;;;;5048302;28;20052;-53
2022/09/06 12:16:12;;;;;;;4.82;3.33;;;27.50;92.60;;;;;;5030571;28;20511;-53
2022/09/06 12:18:47;;;;;;;5.72;3.72;;;27.70;92.90;;;;;;5048014;28;20522;-52
2022/09/06 12:21:39;;;;;;;7.75;4.53;;;28.00;92.20;;;;;;5047667;28;20094;-54
2022/09/06 12:24:34;;;;;;;6.20;4.28;;;28.00;92.40;;;;;;5046738;28;20053;-51
2022/09/06 12:27:23;;;;;;;5.70;5.00;;;28.00;91.90;;;;;;5038054;28;20084;-53
2022/09/06 12:29:51;;;;;;;5.82;4.95;;;28.20;91.70;;;;;;5045113;28;20063;-54
2022/09/06 12:32:22;;;;;;;6.15;5.00;;;28.00;91.80;;;;;;5047302;28;20053;-54
2022/09/06 12:34:49;;;;;;;8.67;4.83;;;27.90;92.10;;;;;;5048364;28;20059;-53
2022/09/06 12:37:55;;;;;;;7.60;4.72;;;27.80;92.40;;;;;;5047930;28;20318;-54
2022/09/06 12:40:24;;;;;;;5.55;4.60;;;27.80;92.10;;;;;;4965683;28;20066;-51
2022/09/06 12:42:52;;;;;;;5.60;5.03;;;27.80;92.20;;;;;;4966221;28;20120;-54
2022/09/06 12:45:20;;;;;;;6.80;3.60;;;27.70;92.10;;;;;;4949354;28;20218;-52
2022/09/06 12:47:47;;;;;;;6.88;3.75;;;27.50;91.80;;;;;;4965261;28;20054;-53
2022/09/06 12:50:16;;;;;;;9.27;3.45;;;27.50;91.90;;;;;;4964569;28;20042;-51
2022/09/06 12:52:48;;;;;;;6.47;3.33;;;27.70;91.90;;;;;;4959686;28;20046;-54
2022/09/06 12:55:21;;;;;;;3.60;3.30;;;27.80;91.70;;;;;;4966623;28;20054;-53
2022/09/06 12:57:50;;;;;;;6.03;3.63;;;27.90;92.00;;;;;;4965724;28;20133;-52